Principado de Asturias, Spain

6:30 AM CET en Noviembre 25, 2017 (GMT +0100)
Molleda,corvera de asturias | | Change Station

Alt 364 ft 43.52 °N, 5.92 °W | Updated 1 second ago

Light Rain
Lluvia débil
49.5 ° F
Sensación térmica 50 ° F
N
2.4
Viento Variable Viento desde Norte
Gusts 0.0 mph

Hoy
Alta -- | Baja -- ° F
--% Posibilidad de precipitaciones
Ayer
Alta -- | Baja -- ° F
Precip. -- pul
Presión 30.21 pul
Visibilidad 5.0 Millas
Nubes Baja 1200 ft
Muy nublado 4300 ft
Vientos helados 50 ° F
Punto de rocío 48 ° F
Humedad 96%
Precipitaciones 0.19 pul
Espesor de la nieve No disponible.
8:30 AM 5:51 PM
Creciente, 36% visible
METAR LEAS 250500Z 23003KT 200V270 8000 -RA FEW012 BKN043 10/09 Q1023 TEMPO 4000 RA
Presión 30.21 pul
Visibilidad 5.0 Millas
Nubes Baja 1200 ft
Muy nublado 4300 ft
Vientos helados 50 ° F
Punto de rocío 48 ° F
Humedad 96%
Precipitaciones 0.19 pul
Espesor de la nieve No disponible.
8:30 AM 5:51 PM
Creciente, 36% visible
METAR LEAS 250500Z 23003KT 200V270 8000 -RA FEW012 BKN043 10/09 Q1023 TEMPO 4000 RA

Get Severe Weather Alerts

Thanks for signing up!

Be on the lookout for a verification email in your inbox.

You'll start receiving the daily forecast at 6 AM.

×

10-Day Weather Forecast

×

Almanac

Astronomía

Nov. 25, 2017 Salida Puesta
Hora real
Crepúsculo civil
Crepúsculo náutico
Crepúsculo astronómico
Luna
Horas de luz
Horas de luz
Tomorrow will be .
, % of the Moon is Illuminated

Extremos de hoy

Máximos del país Bajas del país

Community

WunderPhotos

Category 6

Welcome to Category 6. This is the collective home for Weather Underground's featured writeups by Dr. Jeff Masters (right), Bob Henson (left), Chris Burt, and other regular contributors.

Nearby

Calidad del aire

  Calidad del aire Índice AQ Contaminante
Not available.

Grosos de nieve

Estación Profundido Altura

Actividad de terremotos

Ciudad Distance Mag. Tiempo y dato
Magnitud mínima muestra es 2,5.

Temperaturas de aguas costeras

Lugar Temperatura

Stations

Estaciones meteorológicas cercanas

Ubicación de la estación Temp. Vientos helados Punto de rocío Humedad Viento Precip. Alt Actualizado Tipo